Time,TemperatureF,DewpointF,PressureIn,WindDirection,WindDirectionDegrees,WindSpeedMPH,WindSpeedGustMPH,Humidity,HourlyPrecipIn,Conditions,Clouds,dailyrainin,SoftwareType,DateUTC
2013-02-28 00:02:00,32.2,28.2,30.31,NW,308,1.0,2.0,85,0.00,,---,0.00,VWS V14.01,2013-02-28 06:02:00,
2013-02-28 00:07:00,32.4,28.4,30.31,NNW,330,0.0,2.0,85,0.00,,---,0.00,VWS V14.01,2013-02-28 06:07:00,
2013-02-28 00:12:00,32.7,28.4,30.32,NNW,330,0.0,2.0,84,0.00,,---,0.00,VWS V14.01,2013-02-28 06:12:00,
2013-02-28 00:18:00,32.3,27.7,30.32,SSW,204,2.0,2.0,83,0.00,,---,0.00,VWS V14.01,2013-02-28 06:18:00,
2013-02-28 00:23:00,31.5,27.5,30.32,South,177,2.0,3.0,85,0.00,,---,0.00,VWS V14.01,2013-02-28 06:23:00,
2013-02-28 00:28:00,31.0,27.3,30.32,SSE,159,2.0,3.0,86,0.00,,---,0.00,VWS V14.01,2013-02-28 06:28:00,
2013-02-28 00:33:00,30.7,27.3,30.32,SSE,166,1.0,3.0,87,0.00,,---,0.00,VWS V14.01,2013-02-28 06:33:00,
2013-02-28 00:38:00,30.7,27.6,30.32,SSE,155,1.0,3.0,88,0.00,,---,0.00,VWS V14.01,2013-02-28 06:38:00,
2013-02-28 00:43:00,30.6,27.2,30.32,SSE,152,0.0,3.0,87,0.00,,---,0.00,VWS V14.01,2013-02-28 06:43:00,
2013-02-28 00:48:00,30.5,27.4,30.32,South,191,2.0,3.0,88,0.00,,---,0.00,VWS V14.01,2013-02-28 06:48:00,
2013-02-28 00:53:00,30.4,27.3,30.32,South,186,2.0,3.0,88,0.00,,---,0.00,VWS V14.01,2013-02-28 06:53:00,
2013-02-28 00:58:00,30.8,27.7,30.32,SSE,160,2.0,5.0,88,0.00,,---,0.00,VWS V14.01,2013-02-28 06:58:00,
2013-02-28 01:03:00,30.7,27.3,30.32,SSW,197,2.0,2.0,87,0.00,,---,0.00,VWS V14.01,2013-02-28 07:03:00,
2013-02-28 01:08:00,30.7,27.3,30.32,SSW,194,1.0,2.0,87,0.00,,---,0.00,VWS V14.01,2013-02-28 07:08:00,
2013-02-28 01:13:00,30.6,27.5,30.32,South,184,1.0,2.0,88,0.00,,---,0.00,VWS V14.01,2013-02-28 07:13:00,
2013-02-28 01:18:00,30.2,26.8,30.33,South,169,1.0,2.0,87,0.00,,---,0.00,VWS V14.01,2013-02-28 07:18:00,
2013-02-28 01:24:00,29.7,26.6,30.33,South,186,2.0,3.0,88,0.00,,---,0.00,VWS V14.01,2013-02-28 07:24:00,
2013-02-28 01:29:00,29.4,26.6,30.33,SW,215,2.0,3.0,89,0.00,,---,0.00,VWS V14.01,2013-02-28 07:29:00,
2013-02-28 01:34:00,29.4,26.6,30.33,SW,218,2.0,2.0,89,0.00,,---,0.00,VWS V14.01,2013-02-28 07:34:00,
2013-02-28 01:39:00,29.5,26.7,30.33,SSW,204,1.0,3.0,89,0.00,,---,0.00,VWS V14.01,2013-02-28 07:39:00,
2013-02-28 01:44:00,29.5,26.7,30.33,SSW,210,2.0,3.0,89,0.00,,---,0.00,VWS V14.01,2013-02-28 07:44:00,
2013-02-28 01:49:00,29.3,26.5,30.33,SW,222,1.0,3.0,89,0.00,,---,0.00,VWS V14.01,2013-02-28 07:49:00,
2013-02-28 01:54:00,29.4,26.6,30.32,WSW,251,2.0,3.0,89,0.00,,---,0.00,VWS V14.01,2013-02-28 07:54:00,
2013-02-28 01:59:00,29.7,26.6,30.33,WNW,283,2.0,5.0,88,0.00,,---,0.00,VWS V14.01,2013-02-28 07:59:00,
2013-02-28 02:05:00,29.7,26.6,30.33,West,270,2.0,4.0,88,0.00,,---,0.00,VWS V14.01,2013-02-28 08:05:00,
2013-02-28 02:10:00,29.5,26.7,30.33,West,274,2.0,4.0,89,0.00,,---,0.00,VWS V14.01,2013-02-28 08:10:00,
2013-02-28 02:15:00,29.3,26.5,30.33,West,271,2.0,4.0,89,0.00,,---,0.00,VWS V14.01,2013-02-28 08:15:00,
2013-02-28 02:20:00,29.3,26.5,30.32,West,281,1.0,4.0,89,0.00,,---,0.00,VWS V14.01,2013-02-28 08:20:00,
2013-02-28 02:25:00,29.3,26.5,30.32,WNW,287,2.0,4.0,89,0.00,,---,0.00,VWS V14.01,2013-02-28 08:25:00,
2013-02-28 02:30:00,29.1,26.3,30.32,WNW,285,2.0,4.0,89,0.00,,---,0.00,VWS V14.01,2013-02-28 08:30:00,
2013-02-28 02:36:00,28.9,26.1,30.32,West,266,1.0,2.0,89,0.00,,---,0.00,VWS V14.01,2013-02-28 08:36:00,
2013-02-28 02:41:00,28.8,26.0,30.32,West,277,1.0,2.0,89,0.00,,---,0.00,VWS V14.01,2013-02-28 08:41:00,
2013-02-28 02:46:00,28.6,25.8,30.32,West,277,1.0,2.0,89,0.00,,---,0.00,VWS V14.01,2013-02-28 08:46:00,
2013-02-28 02:51:00,28.5,26.0,30.32,West,271,0.0,2.0,90,0.00,,---,0.00,VWS V14.01,2013-02-28 08:51:00,
2013-02-28 02:56:00,28.4,25.9,30.32,West,279,1.0,2.0,90,0.00,,---,0.00,VWS V14.01,2013-02-28 08:56:00,
2013-02-28 03:01:00,28.4,25.9,30.32,West,280,0.0,1.0,90,0.00,,---,0.00,VWS V14.01,2013-02-28 09:01:00,
2013-02-28 03:07:00,28.4,25.9,30.32,West,262,0.0,2.0,90,0.00,,---,0.00,VWS V14.01,2013-02-28 09:07:00,
2013-02-28 03:12:00,28.5,26.0,30.32,WSW,248,1.0,2.0,90,0.00,,---,0.00,VWS V14.01,2013-02-28 09:12:00,
2013-02-28 03:17:00,28.6,26.0,30.32,SW,223,1.0,2.0,90,0.00,,---,0.00,VWS V14.01,2013-02-28 09:17:00,
2013-02-28 03:22:00,28.8,26.2,30.32,West,269,3.0,6.0,90,0.00,,---,0.00,VWS V14.01,2013-02-28 09:22:00,
2013-02-28 03:27:00,29.2,26.4,30.31,West,269,2.0,6.0,89,0.00,,---,0.00,VWS V14.01,2013-02-28 09:27:00,
2013-02-28 03:32:00,29.2,26.4,30.32,West,269,2.0,4.0,89,0.00,,---,0.00,VWS V14.01,2013-02-28 09:32:00,
2013-02-28 03:37:00,29.4,26.6,30.31,West,276,4.0,4.0,89,0.00,,---,0.00,VWS V14.01,2013-02-28 09:37:00,
2013-02-28 03:43:00,29.4,26.6,30.31,WSW,255,2.0,5.0,89,0.00,,---,0.00,VWS V14.01,2013-02-28 09:43:00,
2013-02-28 03:48:00,29.2,26.1,30.32,WSW,248,2.0,5.0,88,0.00,,---,0.00,VWS V14.01,2013-02-28 09:48:00,
2013-02-28 03:53:00,29.0,26.2,30.32,SW,233,1.0,5.0,89,0.00,,---,0.00,VWS V14.01,2013-02-28 09:53:00,
2013-02-28 03:58:00,29.0,26.2,30.32,West,276,3.0,5.0,89,0.00,,---,0.00,VWS V14.01,2013-02-28 09:58:00,
2013-02-28 04:03:00,29.0,26.2,30.31,WSW,246,1.0,3.0,89,0.00,,---,0.00,VWS V14.01,2013-02-28 10:03:00,
2013-02-28 04:08:00,28.9,26.1,30.31,SW,235,3.0,3.0,89,0.00,,---,0.00,VWS V14.01,2013-02-28 10:08:00,
2013-02-28 04:13:00,28.8,26.0,30.31,SW,221,1.0,3.0,89,0.00,,---,0.00,VWS V14.01,2013-02-28 10:13:00,
2013-02-28 04:19:00,28.6,25.8,30.31,SSW,203,1.0,3.0,89,0.00,,---,0.00,VWS V14.01,2013-02-28 10:19:00,
2013-02-28 04:24:00,28.4,25.6,30.31,SW,222,0.0,3.0,89,0.00,,---,0.00,VWS V14.01,2013-02-28 10:24:00,
2013-02-28 04:29:00,28.7,26.1,30.31,WSW,258,1.0,3.0,90,0.00,,---,0.00,VWS V14.01,2013-02-28 10:29:00,
2013-02-28 04:34:00,28.8,26.0,30.31,West,278,2.0,2.0,89,0.00,,---,0.00,VWS V14.01,2013-02-28 10:34:00,
2013-02-28 04:39:00,28.9,26.1,30.31,WNW,300,2.0,2.0,89,0.00,,---,0.00,VWS V14.01,2013-02-28 10:39:00,
2013-02-28 04:44:00,28.9,26.1,30.31,West,267,1.0,2.0,89,0.00,,---,0.00,VWS V14.01,2013-02-28 10:44:00,
2013-02-28 04:50:00,28.8,26.0,30.31,West,264,3.0,5.0,89,0.00,,---,0.00,VWS V14.01,2013-02-28 10:50:00,
2013-02-28 04:55:00,28.6,25.8,30.32,West,278,3.0,5.0,89,0.00,,---,0.00,VWS V14.01,2013-02-28 10:55:00,
2013-02-28 05:00:00,28.3,25.5,30.32,West,281,0.0,5.0,89,0.00,,---,0.00,VWS V14.01,2013-02-28 11:00:00,
2013-02-28 05:05:00,28.1,25.3,30.32,West,271,1.0,2.0,89,0.00,,---,0.00,VWS V14.01,2013-02-28 11:05:00,
2013-02-28 05:10:00,28.0,25.5,30.32,West,262,1.0,2.0,90,0.00,,---,0.00,VWS V14.01,2013-02-28 11:10:00,
2013-02-28 05:15:00,28.0,25.5,30.32,West,269,1.0,4.0,90,0.00,,---,0.00,VWS V14.01,2013-02-28 11:15:00,
2013-02-28 05:20:00,28.0,25.5,30.32,West,267,1.0,4.0,90,0.00,,---,0.00,VWS V14.01,2013-02-28 11:20:00,
2013-02-28 05:26:00,28.0,25.5,30.31,West,277,1.0,4.0,90,0.00,,---,0.00,VWS V14.01,2013-02-28 11:26:00,
2013-02-28 05:31:00,28.0,25.5,30.32,West,277,1.0,1.0,90,0.00,,---,0.00,VWS V14.01,2013-02-28 11:31:00,
2013-02-28 05:36:00,28.0,25.5,30.31,West,281,2.0,2.0,90,0.00,,---,0.00,VWS V14.01,2013-02-28 11:36:00,
2013-02-28 05:41:00,28.1,25.5,30.31,West,278,1.0,2.0,90,0.00,,---,0.00,VWS V14.01,2013-02-28 11:41:00,
2013-02-28 05:46:00,28.1,25.5,30.31,West,277,1.0,3.0,90,0.00,,---,0.00,VWS V14.01,2013-02-28 11:46:00,
2013-02-28 05:51:00,28.1,25.5,30.31,West,276,1.0,3.0,90,0.00,,---,0.00,VWS V14.01,2013-02-28 11:51:00,
2013-02-28 05:56:00,28.2,25.6,30.32,West,266,2.0,3.0,90,0.00,,---,0.00,VWS V14.01,2013-02-28 11:56:00,
2013-02-28 06:01:00,28.4,25.9,30.32,West,264,1.0,2.0,90,0.00,,---,0.00,VWS V14.01,2013-02-28 12:01:00,
2013-02-28 06:07:00,28.6,26.0,30.32,West,267,1.0,2.0,90,0.00,,---,0.00,VWS V14.01,2013-02-28 12:07:00,
2013-02-28 06:12:00,28.6,26.0,30.32,WSW,245,1.0,2.0,90,0.00,,---,0.00,VWS V14.01,2013-02-28 12:12:00,
2013-02-28 06:17:00,28.2,25.4,30.32,SW,218,1.0,3.0,89,0.00,,---,0.00,VWS V14.01,2013-02-28 12:17:00,
2013-02-28 06:22:00,27.6,24.8,30.32,SSW,204,2.0,3.0,89,0.00,,---,0.00,VWS V14.01,2013-02-28 12:22:00,
2013-02-28 06:27:00,27.1,24.6,30.32,SSW,194,1.0,4.0,90,0.00,,---,0.00,VWS V14.01,2013-02-28 12:27:00,
2013-02-28 06:33:00,26.8,24.3,30.33,SSE,166,0.0,2.0,90,0.00,,---,0.00,VWS V14.01,2013-02-28 12:33:00,
2013-02-28 06:38:00,26.7,24.4,30.33,SSW,201,2.0,3.0,91,0.00,,---,0.00,VWS V14.01,2013-02-28 12:38:00,
2013-02-28 06:43:00,26.7,24.4,30.33,South,177,0.0,3.0,91,0.00,,---,0.00,VWS V14.01,2013-02-28 12:43:00,
2013-02-28 06:48:00,26.7,24.7,30.33,SW,217,2.0,3.0,92,0.00,,---,0.00,VWS V14.01,2013-02-28 12:48:00,
2013-02-28 06:53:00,26.7,24.4,30.33,SSW,198,2.0,3.0,91,0.00,,---,0.00,VWS V14.01,2013-02-28 12:53:00,
2013-02-28 06:58:00,26.7,24.4,30.33,South,188,1.0,3.0,91,0.00,,---,0.00,VWS V14.01,2013-02-28 12:58:00,
2013-02-28 07:03:00,26.7,24.7,30.33,SSE,153,0.0,2.0,92,0.00,,---,0.00,VWS V14.01,2013-02-28 13:03:00,
2013-02-28 07:09:00,26.7,24.7,30.33,SSE,158,1.0,3.0,92,0.00,,---,0.00,VWS V14.01,2013-02-28 13:09:00,
2013-02-28 07:14:00,26.9,24.9,30.33,SSE,154,1.0,3.0,92,0.00,,---,0.00,VWS V14.01,2013-02-28 13:14:00,
2013-02-28 07:19:00,27.3,25.3,30.33,South,172,2.0,3.0,92,0.00,,---,0.00,VWS V14.01,2013-02-28 13:19:00,
2013-02-28 07:24:00,27.6,25.6,30.33,South,191,1.0,3.0,92,0.00,,---,0.00,VWS V14.01,2013-02-28 13:24:00,
2013-02-28 07:29:00,28.2,25.9,30.33,SSE,167,1.0,3.0,91,0.00,,---,0.00,VWS V14.01,2013-02-28 13:29:00,
2013-02-28 07:34:00,28.9,26.6,30.34,South,169,1.0,2.0,91,0.00,,---,0.00,VWS V14.01,2013-02-28 13:34:00,
2013-02-28 07:40:00,29.6,27.0,30.34,South,170,1.0,2.0,90,0.00,,---,0.00,VWS V14.01,2013-02-28 13:40:00,
2013-02-28 07:45:00,30.2,27.4,30.34,SSE,166,0.0,2.0,89,0.00,,---,0.00,VWS V14.01,2013-02-28 13:45:00,
2013-02-28 07:50:00,30.8,27.7,30.34,SW,226,1.0,2.0,88,0.00,,---,0.00,VWS V14.01,2013-02-28 13:50:00,
2013-02-28 07:55:00,31.1,27.7,30.33,SW,226,0.0,2.0,87,0.00,,---,0.00,VWS V14.01,2013-02-28 13:55:00,
2013-02-28 08:00:00,31.8,28.4,30.33,SW,231,1.0,2.0,87,0.00,,---,0.00,VWS V14.01,2013-02-28 14:00:00,
2013-02-28 08:05:00,32.0,28.0,30.34,WNW,282,2.0,3.0,85,0.00,,---,0.00,VWS V14.01,2013-02-28 14:05:00,
2013-02-28 08:11:00,32.1,28.4,30.34,West,262,2.0,3.0,86,0.00,,---,0.00,VWS V14.01,2013-02-28 14:11:00,
2013-02-28 08:16:00,32.4,28.7,30.34,West,274,1.0,3.0,86,0.00,,---,0.00,VWS V14.01,2013-02-28 14:16:00,
2013-02-28 08:21:00,33.0,29.6,30.34,WNW,297,2.0,4.0,87,0.00,,---,0.00,VWS V14.01,2013-02-28 14:21:00,
2013-02-28 08:26:00,33.6,30.1,30.35,WNW,297,6.0,6.0,87,0.00,,---,0.00,VWS V14.01,2013-02-28 14:26:00,
2013-02-28 08:31:00,34.2,30.5,30.35,WNW,300,1.0,3.0,86,0.00,,---,0.00,VWS V14.01,2013-02-28 14:31:00,
2013-02-28 08:36:00,34.7,30.7,30.35,WNW,291,7.0,7.0,85,0.00,,---,0.00,VWS V14.01,2013-02-28 14:36:00,
2013-02-28 08:42:00,35.1,30.8,30.35,WNW,290,7.0,10.0,84,0.00,,---,0.00,VWS V14.01,2013-02-28 14:42:00,
2013-02-28 08:47:00,35.5,31.1,30.35,WNW,296,3.0,10.0,84,0.00,,---,0.00,VWS V14.01,2013-02-28 14:47:00,
2013-02-28 08:52:00,35.8,31.1,30.35,NW,316,5.0,11.0,83,0.00,,---,0.00,VWS V14.01,2013-02-28 14:52:00,
2013-02-28 08:57:00,36.3,31.0,30.35,WNW,298,10.0,13.0,81,0.00,,---,0.00,VWS V14.01,2013-02-28 14:57:00,
2013-02-28 09:02:00,36.8,31.5,30.36,WNW,302,6.0,11.0,81,0.00,,---,0.00,VWS V14.01,2013-02-28 15:02:00,
2013-02-28 09:07:00,37.3,31.4,30.36,WNW,290,9.0,13.0,79,0.00,,---,0.00,VWS V14.01,2013-02-28 15:07:00,
2013-02-28 09:13:00,37.9,31.7,30.36,WNW,283,10.0,14.0,78,0.00,,---,0.00,VWS V14.01,2013-02-28 15:13:00,
2013-02-28 09:18:00,38.5,31.3,30.36,WNW,285,9.0,14.0,75,0.00,,---,0.00,VWS V14.01,2013-02-28 15:18:00,
2013-02-28 09:23:00,39.2,30.2,30.36,NW,318,10.0,14.0,70,0.00,,---,0.00,VWS V14.01,2013-02-28 15:23:00,
2013-02-28 09:28:00,39.9,30.6,30.36,NNW,339,7.0,14.0,69,0.00,,---,0.00,VWS V14.01,2013-02-28 15:28:00,
2013-02-28 09:33:00,40.3,30.2,30.36,WNW,291,11.0,16.0,67,0.00,,---,0.00,VWS V14.01,2013-02-28 15:33:00,
2013-02-28 09:38:00,40.7,30.2,30.36,NNW,333,7.0,16.0,66,0.00,,---,0.00,VWS V14.01,2013-02-28 15:38:00,
2013-02-28 09:44:00,41.1,30.6,30.36,WNW,288,7.0,16.0,66,0.00,,---,0.00,VWS V14.01,2013-02-28 15:44:00,
2013-02-28 09:49:00,41.5,30.2,30.35,WNW,295,8.0,16.0,64,0.00,,---,0.00,VWS V14.01,2013-02-28 15:49:00,
2013-02-28 09:54:00,42.1,31.2,30.35,NW,316,7.0,16.0,65,0.00,,---,0.00,VWS V14.01,2013-02-28 15:54:00,
2013-02-28 09:59:00,42.4,31.1,30.35,NW,322,9.0,16.0,64,0.00,,---,0.00,VWS V14.01,2013-02-28 15:59:00,
2013-02-28 10:04:00,43.0,31.3,30.35,WNW,293,7.0,12.0,63,0.00,,---,0.00,VWS V14.01,2013-02-28 16:04:00,
2013-02-28 10:10:00,43.4,31.7,30.35,WNW,293,7.0,12.0,63,0.00,,---,0.00,VWS V14.01,2013-02-28 16:10:00,
2013-02-28 10:15:00,43.8,32.0,30.35,WNW,295,8.0,12.0,63,0.00,,---,0.00,VWS V14.01,2013-02-28 16:15:00,
2013-02-28 10:20:00,44.2,31.2,30.35,NNW,327,5.0,12.0,60,0.00,,---,0.00,VWS V14.01,2013-02-28 16:20:00,
2013-02-28 10:25:00,44.8,30.5,30.35,NW,322,10.0,12.0,57,0.00,,---,0.00,VWS V14.01,2013-02-28 16:25:00,
2013-02-28 10:30:00,45.3,30.1,30.35,NW,316,7.0,13.0,55,0.00,,---,0.00,VWS V14.01,2013-02-28 16:30:00,
2013-02-28 10:35:00,45.8,29.7,30.35,NNW,346,9.0,13.0,53,0.00,,---,0.00,VWS V14.01,2013-02-28 16:35:00,
2013-02-28 10:40:00,45.9,29.3,30.34,NW,323,8.0,14.0,52,0.00,,---,0.00,VWS V14.01,2013-02-28 16:40:00,
2013-02-28 10:45:00,45.9,28.8,30.35,NNE,18,9.0,16.0,51,0.00,,---,0.00,VWS V14.01,2013-02-28 16:45:00,
2013-02-28 10:50:00,46.3,29.6,30.35,NNW,333,7.0,16.0,52,0.00,,---,0.00,VWS V14.01,2013-02-28 16:50:00,
2013-02-28 10:55:00,47.0,29.3,30.35,NNW,336,10.0,16.0,50,0.00,,---,0.00,VWS V14.01,2013-02-28 16:55:00,
2013-02-28 11:00:00,47.3,30.1,30.35,NNW,329,7.0,16.0,51,0.00,,---,0.00,VWS V14.01,2013-02-28 17:00:00,
2013-02-28 11:06:00,47.3,29.6,30.35,NW,304,8.0,14.0,50,0.00,,---,0.00,VWS V14.01,2013-02-28 17:06:00,
2013-02-28 11:11:00,47.8,29.1,30.35,North,9,8.0,14.0,48,0.00,,---,0.00,VWS V14.01,2013-02-28 17:11:00,
2013-02-28 11:16:00,47.9,29.7,30.35,North,1,7.0,14.0,49,0.00,,---,0.00,VWS V14.01,2013-02-28 17:16:00,
2013-02-28 11:21:00,48.2,30.5,30.35,NW,304,4.0,14.0,50,0.00,,---,0.00,VWS V14.01,2013-02-28 17:21:00,
2013-02-28 11:26:00,48.6,30.8,30.35,NW,321,10.0,14.0,50,0.00,,---,0.00,VWS V14.01,2013-02-28 17:26:00,
2013-02-28 11:31:00,48.5,30.2,30.35,WNW,295,9.0,10.0,49,0.00,,---,0.00,VWS V14.01,2013-02-28 17:31:00,
2013-02-28 11:36:00,48.9,29.6,30.35,North,360,4.0,11.0,47,0.00,,---,0.00,VWS V14.01,2013-02-28 17:36:00,
2013-02-28 11:41:00,48.9,30.1,30.34,West,273,13.0,15.0,48,0.00,,---,0.00,VWS V14.01,2013-02-28 17:41:00,
2013-02-28 11:46:00,49.3,29.9,30.34,NNE,14,8.0,17.0,47,0.00,,---,0.00,VWS V14.01,2013-02-28 17:46:00,
2013-02-28 11:51:00,49.5,30.1,30.34,WNW,290,8.0,17.0,47,0.00,,---,0.00,VWS V14.01,2013-02-28 17:51:00,
2013-02-28 11:56:00,50.0,30.0,30.34,NW,307,7.0,17.0,46,0.00,,---,0.00,VWS V14.01,2013-02-28 17:56:00,
2013-02-28 12:02:00,50.0,30.6,30.34,NNW,335,7.0,13.0,47,0.00,,---,0.00,VWS V14.01,2013-02-28 18:02:00,
2013-02-28 12:06:00,50.3,30.3,30.33,NNW,333,10.0,13.0,46,0.00,,---,0.00,VWS V14.01,2013-02-28 18:06:00,
2013-02-28 12:11:00,50.8,29.1,30.33,NW,314,12.0,20.0,43,0.00,,---,0.00,VWS V14.01,2013-02-28 18:11:00,
2013-02-28 12:17:00,51.0,30.4,30.33,NNW,328,16.0,20.0,45,0.00,,---,0.00,VWS V14.01,2013-02-28 18:17:00,
2013-02-28 12:22:00,50.9,30.9,30.33,WNW,293,4.0,20.0,46,0.00,,---,0.00,VWS V14.01,2013-02-28 18:22:00,
2013-02-28 12:27:00,51.0,31.0,30.33,WNW,283,9.0,20.0,46,0.00,,---,0.00,VWS V14.01,2013-02-28 18:27:00,
2013-02-28 12:32:00,51.5,30.3,30.32,NNW,329,7.0,10.0,44,0.00,,---,0.00,VWS V14.01,2013-02-28 18:32:00,
2013-02-28 12:37:00,51.3,29.6,30.32,NW,314,4.0,17.0,43,0.00,,---,0.00,VWS V14.01,2013-02-28 18:37:00,
2013-02-28 12:42:00,52.2,29.8,30.32,NW,306,13.0,17.0,42,0.00,,---,0.00,VWS V14.01,2013-02-28 18:42:00,
2013-02-28 12:47:00,52.2,29.2,30.32,WNW,302,10.0,17.0,41,0.00,,---,0.00,VWS V14.01,2013-02-28 18:47:00,
2013-02-28 12:52:00,52.7,29.1,30.32,NW,322,9.0,17.0,40,0.00,,---,0.00,VWS V14.01,2013-02-28 18:52:00,
2013-02-28 12:57:00,52.7,25.8,30.31,West,281,15.0,17.0,35,0.00,,---,0.00,VWS V14.01,2013-02-28 18:57:00,
2013-02-28 13:03:00,52.8,27.9,30.31,WNW,289,7.0,13.0,38,0.00,,---,0.00,VWS V14.01,2013-02-28 19:03:00,
2013-02-28 13:08:00,53.3,27.0,30.30,NW,304,10.0,17.0,36,0.00,,---,0.00,VWS V14.01,2013-02-28 19:08:00,
2013-02-28 13:13:00,53.8,28.8,30.30,WNW,293,7.0,17.0,38,0.00,,---,0.00,VWS V14.01,2013-02-28 19:13:00,
2013-02-28 13:18:00,53.6,28.6,30.30,NW,320,11.0,17.0,38,0.00,,---,0.00,VWS V14.01,2013-02-28 19:18:00,
2013-02-28 13:23:00,53.9,27.6,30.30,NNW,344,10.0,17.0,36,0.00,,---,0.00,VWS V14.01,2013-02-28 19:23:00,
2013-02-28 13:28:00,54.0,27.0,30.29,NNE,22,13.0,18.0,35,0.00,,---,0.00,VWS V14.01,2013-02-28 19:28:00,
2013-02-28 13:33:00,53.9,26.9,30.29,NNW,334,11.0,16.0,35,0.00,,---,0.00,VWS V14.01,2013-02-28 19:33:00,
2013-02-28 13:39:00,54.2,27.2,30.29,NW,320,13.0,17.0,35,0.00,,---,0.00,VWS V14.01,2013-02-28 19:39:00,
2013-02-28 13:44:00,54.1,26.4,30.28,WNW,301,14.0,20.0,34,0.00,,---,0.00,VWS V14.01,2013-02-28 19:44:00,
2013-02-28 13:49:00,54.2,25.7,30.28,NNW,334,13.0,20.0,33,0.00,,---,0.00,VWS V14.01,2013-02-28 19:49:00,
2013-02-28 13:54:00,54.3,27.2,30.28,NNW,336,12.0,20.0,35,0.00,,---,0.00,VWS V14.01,2013-02-28 19:54:00,
2013-02-28 13:59:00,54.5,26.7,30.28,NW,306,10.0,20.0,34,0.00,,---,0.00,VWS V14.01,2013-02-28 19:59:00,
2013-02-28 14:04:00,54.5,27.4,30.27,North,10,13.0,17.0,35,0.00,,---,0.00,VWS V14.01,2013-02-28 20:04:00,
2013-02-28 14:10:00,54.5,26.7,30.27,NW,321,11.0,20.0,34,0.00,,---,0.00,VWS V14.01,2013-02-28 20:10:00,
2013-02-28 14:15:00,54.6,27.5,30.26,NNW,334,15.0,20.0,35,0.00,,---,0.00,VWS V14.01,2013-02-28 20:15:00,
2013-02-28 14:20:00,54.7,26.9,30.26,NW,317,13.0,20.0,34,0.00,,---,0.00,VWS V14.01,2013-02-28 20:20:00,
2013-02-28 14:25:00,54.9,27.1,30.26,NE,49,12.0,20.0,34,0.00,,---,0.00,VWS V14.01,2013-02-28 20:25:00,
2013-02-28 14:30:00,55.1,28.6,30.26,NNW,329,7.0,20.0,36,0.00,,---,0.00,VWS V14.01,2013-02-28 20:30:00,
2013-02-28 14:35:00,54.9,25.6,30.26,NW,320,15.0,21.0,32,0.00,,---,0.00,VWS V14.01,2013-02-28 20:35:00,
2013-02-28 14:40:00,55.2,26.6,30.26,NNW,340,16.0,21.0,33,0.00,,---,0.00,VWS V14.01,2013-02-28 20:40:00,
2013-02-28 14:45:00,55.3,27.4,30.26,North,9,6.0,21.0,34,0.00,,---,0.00,VWS V14.01,2013-02-28 20:45:00,
2013-02-28 14:50:00,55.5,26.9,30.26,NW,304,8.0,21.0,33,0.00,,---,0.00,VWS V14.01,2013-02-28 20:50:00,
2013-02-28 14:56:00,55.4,26.8,30.25,SSE,157,13.0,21.0,33,0.00,,---,0.00,VWS V14.01,2013-02-28 20:56:00,
2013-02-28 15:01:00,55.1,25.8,30.26,NW,323,9.0,14.0,32,0.00,,---,0.00,VWS V14.01,2013-02-28 21:01:00,
2013-02-28 15:06:00,54.8,26.3,30.26,ENE,58,14.0,18.0,33,0.00,,---,0.00,VWS V14.01,2013-02-28 21:06:00,
2013-02-28 15:11:00,55.1,27.3,30.26,NNW,347,8.0,18.0,34,0.00,,---,0.00,VWS V14.01,2013-02-28 21:11:00,
2013-02-28 15:16:00,55.4,26.0,30.25,NNW,340,17.0,19.0,32,0.00,,---,0.00,VWS V14.01,2013-02-28 21:16:00,
2013-02-28 15:21:00,55.5,27.6,30.25,NNW,338,15.0,19.0,34,0.00,,---,0.00,VWS V14.01,2013-02-28 21:21:00,
2013-02-28 15:26:00,55.4,26.0,30.25,NNW,336,11.0,20.0,32,0.00,,---,0.00,VWS V14.01,2013-02-28 21:26:00,
2013-02-28 15:32:00,55.4,25.3,30.25,NW,326,6.0,15.0,31,0.00,,---,0.00,VWS V14.01,2013-02-28 21:32:00,
2013-02-28 15:37:00,55.4,25.3,30.25,NNW,346,12.0,18.0,31,0.00,,---,0.00,VWS V14.01,2013-02-28 21:37:00,
2013-02-28 15:42:00,55.8,27.1,30.25,WNW,292,15.0,18.0,33,0.00,,---,0.00,VWS V14.01,2013-02-28 21:42:00,
2013-02-28 15:47:00,55.9,27.2,30.25,NNW,330,13.0,18.0,33,0.00,,---,0.00,VWS V14.01,2013-02-28 21:47:00,
2013-02-28 15:52:00,55.8,27.1,30.25,WNW,302,10.0,18.0,33,0.00,,---,0.00,VWS V14.01,2013-02-28 21:52:00,
2013-02-28 15:57:00,55.6,23.9,30.25,NW,319,9.0,18.0,29,0.00,,---,0.00,VWS V14.01,2013-02-28 21:57:00,
2013-02-28 16:02:00,55.7,24.0,30.25,WNW,294,13.0,14.0,29,0.00,,---,0.00,VWS V14.01,2013-02-28 22:02:00,
2013-02-28 16:07:00,55.6,23.9,30.25,WNW,302,14.0,21.0,29,0.00,,---,0.00,VWS V14.01,2013-02-28 22:07:00,
2013-02-28 16:13:00,55.7,24.8,30.25,WNW,299,9.0,21.0,30,0.00,,---,0.00,VWS V14.01,2013-02-28 22:13:00,
2013-02-28 16:18:00,55.5,23.0,30.25,WNW,287,12.0,24.0,28,0.00,,---,0.00,VWS V14.01,2013-02-28 22:18:00,
2013-02-28 16:23:00,55.5,24.6,30.25,NNW,333,9.0,24.0,30,0.00,,---,0.00,VWS V14.01,2013-02-28 22:23:00,
2013-02-28 16:28:00,55.5,25.4,30.25,NW,315,11.0,24.0,31,0.00,,---,0.00,VWS V14.01,2013-02-28 22:28:00,
2013-02-28 16:33:00,55.4,22.9,30.25,NW,307,16.0,18.0,28,0.00,,---,0.00,VWS V14.01,2013-02-28 22:33:00,
2013-02-28 16:39:00,55.3,24.4,30.25,WNW,291,12.0,18.0,30,0.00,,---,0.00,VWS V14.01,2013-02-28 22:39:00,
2013-02-28 16:43:00,55.2,23.5,30.25,NW,311,10.0,18.0,29,0.00,,---,0.00,VWS V14.01,2013-02-28 22:43:00,
2013-02-28 16:49:00,55.2,22.7,30.25,North,1,12.0,18.0,28,0.00,,---,0.00,VWS V14.01,2013-02-28 22:49:00,
2013-02-28 16:54:00,55.0,24.2,30.24,WNW,292,13.0,18.0,30,0.00,,---,0.00,VWS V14.01,2013-02-28 22:54:00,
2013-02-28 16:59:00,54.9,24.9,30.24,WNW,291,7.0,18.0,31,0.00,,---,0.00,VWS V14.01,2013-02-28 22:59:00,
2013-02-28 17:04:00,55.0,24.2,30.24,NW,324,11.0,15.0,30,0.00,,---,0.00,VWS V14.01,2013-02-28 23:04:00,
2013-02-28 17:09:00,54.8,23.2,30.24,WNW,285,8.0,16.0,29,0.00,,---,0.00,VWS V14.01,2013-02-28 23:09:00,
2013-02-28 17:15:00,54.9,24.9,30.24,NW,309,9.0,19.0,31,0.00,,---,0.00,VWS V14.01,2013-02-28 23:15:00,
2013-02-28 17:20:00,54.7,23.9,30.24,NW,326,11.0,19.0,30,0.00,,---,0.00,VWS V14.01,2013-02-28 23:20:00,
2013-02-28 17:25:00,54.5,23.7,30.24,North,9,7.0,19.0,30,0.00,,---,0.00,VWS V14.01,2013-02-28 23:25:00,
2013-02-28 17:30:00,54.4,23.6,30.24,NW,326,16.0,19.0,30,0.00,,---,0.00,VWS V14.01,2013-02-28 23:30:00,
2013-02-28 17:35:00,54.3,24.3,30.24,NW,323,8.0,17.0,31,0.00,,---,0.00,VWS V14.01,2013-02-28 23:35:00,
2013-02-28 17:40:00,54.2,23.5,30.23,NNW,333,7.0,17.0,30,0.00,,---,0.00,VWS V14.01,2013-02-28 23:40:00,
2013-02-28 17:45:00,54.0,23.3,30.23,NNW,329,8.0,17.0,30,0.00,,---,0.00,VWS V14.01,2013-02-28 23:45:00,
2013-02-28 17:51:00,53.8,23.9,30.24,NW,315,9.0,17.0,31,0.00,,---,0.00,VWS V14.01,2013-02-28 23:51:00,
2013-02-28 17:56:00,53.6,24.5,30.24,NNW,333,7.0,17.0,32,0.00,,---,0.00,VWS V14.01,2013-02-28 23:56:00,
2013-02-28 18:01:00,53.4,23.5,30.24,NW,323,12.0,17.0,31,0.00,,---,0.00,VWS V14.01,2013-03-01 00:01:00,
2013-02-28 18:06:00,53.2,23.4,30.24,NNW,344,8.0,14.0,31,0.00,,---,0.00,VWS V14.01,2013-03-01 00:06:00,
2013-02-28 18:11:00,52.8,23.8,30.24,NNW,333,6.0,14.0,32,0.00,,---,0.00,VWS V14.01,2013-03-01 00:11:00,
2013-02-28 18:16:00,52.5,24.2,30.24,NW,315,6.0,14.0,33,0.00,,---,0.00,VWS V14.01,2013-03-01 00:16:00,
2013-02-28 18:21:00,52.0,25.2,30.25,NW,318,5.0,14.0,35,0.00,,---,0.00,VWS V14.01,2013-03-01 00:21:00,
2013-02-28 18:26:00,51.3,25.3,30.25,WNW,285,5.0,14.0,36,0.00,,---,0.00,VWS V14.01,2013-03-01 00:26:00,
2013-02-28 18:31:00,50.9,24.9,30.25,NNW,330,5.0,9.0,36,0.00,,---,0.00,VWS V14.01,2013-03-01 00:31:00,
2013-02-28 18:36:00,50.2,25.6,30.25,North,349,8.0,11.0,38,0.00,,---,0.00,VWS V14.01,2013-03-01 00:36:00,
2013-02-28 18:42:00,49.5,26.2,30.25,NW,324,4.0,11.0,40,0.00,,---,0.00,VWS V14.01,2013-03-01 00:42:00,
2013-02-28 18:47:00,48.7,26.1,30.25,North,355,7.0,11.0,41,0.00,,---,0.00,VWS V14.01,2013-03-01 00:47:00,
2013-02-28 18:52:00,48.0,26.6,30.25,NNW,347,4.0,11.0,43,0.00,,---,0.00,VWS V14.01,2013-03-01 00:52:00,
2013-02-28 18:57:00,47.3,27.0,30.25,North,354,3.0,11.0,45,0.00,,---,0.00,VWS V14.01,2013-03-01 00:57:00,
2013-02-28 19:02:00,46.9,27.2,30.25,North,350,2.0,2.0,46,0.00,,---,0.00,VWS V14.01,2013-03-01 01:02:00,
2013-02-28 19:07:00,46.8,27.1,30.26,North,4,2.0,4.0,46,0.00,,---,0.00,VWS V14.01,2013-03-01 01:07:00,
2013-02-28 19:13:00,46.5,26.9,30.26,North,5,3.0,4.0,46,0.00,,---,0.00,VWS V14.01,2013-03-01 01:13:00,
2013-02-28 19:18:00,46.2,27.1,30.26,NNW,333,1.0,4.0,47,0.00,,---,0.00,VWS V14.01,2013-03-01 01:18:00,
2013-02-28 19:23:00,45.9,26.8,30.26,NNW,345,2.0,5.0,47,0.00,,---,0.00,VWS V14.01,2013-03-01 01:23:00,
2013-02-28 19:28:00,45.3,26.8,30.26,NNW,342,2.0,5.0,48,0.00,,---,0.00,VWS V14.01,2013-03-01 01:28:00,
2013-02-28 19:33:00,44.6,27.6,30.26,North,349,1.0,2.0,51,0.00,,---,0.00,VWS V14.01,2013-03-01 01:33:00,
2013-02-28 19:38:00,44.0,27.0,30.26,NNW,347,0.0,2.0,51,0.00,,---,0.00,VWS V14.01,2013-03-01 01:38:00,
2013-02-28 19:44:00,43.8,27.3,30.26,NNW,345,1.0,2.0,52,0.00,,---,0.00,VWS V14.01,2013-03-01 01:44:00,
2013-02-28 19:49:00,43.5,27.5,30.26,NNW,330,0.0,2.0,53,0.00,,---,0.00,VWS V14.01,2013-03-01 01:49:00,
2013-02-28 19:54:00,43.0,27.0,30.26,NNW,330,0.0,2.0,53,0.00,,---,0.00,VWS V14.01,2013-03-01 01:54:00,
2013-02-28 19:59:00,42.6,27.1,30.26,NNW,330,0.0,2.0,54,0.00,,---,0.00,VWS V14.01,2013-03-01 01:59:00,
2013-02-28 20:04:00,42.3,27.3,30.26,NNW,330,0.0,1.0,55,0.00,,---,0.00,VWS V14.01,2013-03-01 02:04:00,
2013-02-28 20:10:00,42.0,27.5,30.26,NNW,330,0.0,1.0,56,0.00,,---,0.00,VWS V14.01,2013-03-01 02:10:00,
2013-02-28 20:15:00,41.7,27.2,30.26,NNW,330,0.0,1.0,56,0.00,,---,0.00,VWS V14.01,2013-03-01 02:15:00,
2013-02-28 20:20:00,41.7,27.2,30.26,NNW,330,0.0,1.0,56,0.00,,---,0.00,VWS V14.01,2013-03-01 02:20:00,
2013-02-28 20:25:00,41.8,27.3,30.26,NNW,330,0.0,1.0,56,0.00,,---,0.00,VWS V14.01,2013-03-01 02:25:00,
2013-02-28 20:30:00,41.6,27.1,30.26,NNW,330,0.0,1.0,56,0.00,,---,0.00,VWS V14.01,2013-03-01 02:30:00,
2013-02-28 20:35:00,41.5,27.0,30.26,NNW,330,0.0,0.0,56,0.00,,---,0.00,VWS V14.01,2013-03-01 02:35:00,
2013-02-28 20:40:00,41.2,27.1,30.26,NNW,330,0.0,0.0,57,0.00,,---,0.00,VWS V14.01,2013-03-01 02:40:00,
2013-02-28 20:45:00,41.2,27.1,30.26,NNW,330,0.0,1.0,57,0.00,,---,0.00,VWS V14.01,2013-03-01 02:45:00,
2013-02-28 20:51:00,41.0,27.0,30.26,NNW,330,0.0,1.0,57,0.00,,---,0.00,VWS V14.01,2013-03-01 02:51:00,
2013-02-28 20:56:00,40.6,27.0,30.26,NNW,330,0.0,1.0,58,0.00,,---,0.00,VWS V14.01,2013-03-01 02:56:00,
2013-02-28 21:01:00,40.1,26.9,30.26,NNW,330,0.0,0.0,59,0.00,,---,0.00,VWS V14.01,2013-03-01 03:01:00,
2013-02-28 21:06:00,39.9,26.8,30.26,NNW,330,0.0,0.0,59,0.00,,---,0.00,VWS V14.01,2013-03-01 03:06:00,
2013-02-28 21:11:00,39.6,26.9,30.26,NNW,330,0.0,1.0,60,0.00,,---,0.00,VWS V14.01,2013-03-01 03:11:00,
2013-02-28 21:16:00,39.6,26.9,30.26,SW,219,1.0,1.0,60,0.00,,---,0.00,VWS V14.01,2013-03-01 03:16:00,
2013-02-28 21:21:00,39.3,27.4,30.26,South,171,1.0,2.0,62,0.00,,---,0.00,VWS V14.01,2013-03-01 03:21:00,
2013-02-28 21:26:00,39.1,27.2,30.26,South,170,0.0,2.0,62,0.00,,---,0.00,VWS V14.01,2013-03-01 03:26:00,
2013-02-28 21:31:00,39.1,26.8,30.26,South,171,0.0,0.0,61,0.00,,---,0.00,VWS V14.01,2013-03-01 03:31:00,
2013-02-28 21:37:00,39.2,26.5,30.27,South,170,0.0,0.0,60,0.00,,---,0.00,VWS V14.01,2013-03-01 03:37:00,
2013-02-28 21:42:00,38.7,26.4,30.27,South,170,0.0,0.0,61,0.00,,---,0.00,VWS V14.01,2013-03-01 03:42:00,
2013-02-28 21:47:00,38.5,26.6,30.27,South,170,0.0,0.0,62,0.00,,---,0.00,VWS V14.01,2013-03-01 03:47:00,
2013-02-28 21:52:00,37.1,27.5,30.27,SSW,211,3.0,4.0,68,0.00,,---,0.00,VWS V14.01,2013-03-01 03:52:00,
2013-02-28 21:57:00,35.6,27.1,30.27,SSE,166,2.0,4.0,71,0.00,,---,0.00,VWS V14.01,2013-03-01 03:57:00,
2013-02-28 22:02:00,35.0,27.2,30.27,SSW,194,2.0,2.0,73,0.00,,---,0.00,VWS V14.01,2013-03-01 04:02:00,
2013-02-28 22:07:00,35.6,27.1,30.27,SSW,210,1.0,3.0,71,0.00,,---,0.00,VWS V14.01,2013-03-01 04:07:00,
2013-02-28 22:13:00,35.8,27.3,30.27,SSE,155,0.0,3.0,71,0.00,,---,0.00,VWS V14.01,2013-03-01 04:13:00,
2013-02-28 22:18:00,35.5,27.0,30.27,SSE,155,0.0,3.0,71,0.00,,---,0.00,VWS V14.01,2013-03-01 04:18:00,
2013-02-28 22:23:00,35.7,27.2,30.27,SSE,160,1.0,3.0,71,0.00,,---,0.00,VWS V14.01,2013-03-01 04:23:00,
2013-02-28 22:28:00,35.7,27.2,30.27,SSE,163,2.0,3.0,71,0.00,,---,0.00,VWS V14.01,2013-03-01 04:28:00,
2013-02-28 22:33:00,35.4,27.0,30.27,SSE,159,1.0,1.0,71,0.00,,---,0.00,VWS V14.01,2013-03-01 04:33:00,
2013-02-28 22:38:00,35.5,27.0,30.27,SSE,147,1.0,1.0,71,0.00,,---,0.00,VWS V14.01,2013-03-01 04:38:00,
2013-02-28 22:43:00,35.6,27.1,30.27,SE,146,1.0,1.0,71,0.00,,---,0.00,VWS V14.01,2013-03-01 04:43:00,
2013-02-28 22:48:00,35.7,27.2,30.27,SE,146,2.0,2.0,71,0.00,,---,0.00,VWS V14.01,2013-03-01 04:48:00,
2013-02-28 22:54:00,35.5,27.0,30.27,SSE,158,1.0,2.0,71,0.00,,---,0.00,VWS V14.01,2013-03-01 04:54:00,
2013-02-28 22:59:00,35.3,27.2,30.27,SSE,158,2.0,2.0,72,0.00,,---,0.00,VWS V14.01,2013-03-01 04:59:00,
2013-02-28 23:00:00,35.3,27.2,30.26,SSE,153,2.0,2.0,72,0.00,,---,0.00,VWS V14.01,2013-03-01 05:00:00,
2013-02-28 23:01:00,35.3,27.2,30.26,SSE,153,2.0,2.0,72,0.00,,---,0.00,VWS V14.01,2013-03-01 05:01:00,
2013-02-28 23:06:00,35.0,27.2,30.26,SSE,153,2.0,2.0,73,0.00,,---,0.00,VWS V14.01,2013-03-01 05:06:00,
2013-02-28 23:09:00,35.1,27.3,30.26,SSE,153,2.0,2.0,73,0.00,,---,0.00,VWS V14.01,2013-03-01 05:09:00,
2013-02-28 23:15:00,35.1,27.3,30.26,South,181,2.0,2.0,73,0.00,,---,0.00,VWS V14.01,2013-03-01 05:15:00,
2013-02-28 23:20:00,34.4,27.3,30.26,South,186,1.0,2.0,75,0.00,,---,0.00,VWS V14.01,2013-03-01 05:20:00,
2013-02-28 23:25:00,33.8,27.4,30.26,SSE,153,1.0,2.0,77,0.00,,---,0.00,VWS V14.01,2013-03-01 05:25:00,
2013-02-28 23:30:00,33.4,27.3,30.26,SSE,155,2.0,2.0,78,0.00,,---,0.00,VWS V14.01,2013-03-01 05:30:00,
2013-02-28 23:35:00,33.5,27.4,30.26,SSW,198,2.0,2.0,78,0.00,,---,0.00,VWS V14.01,2013-03-01 05:35:00,
2013-02-28 23:40:00,33.8,27.7,30.26,SSW,198,2.0,2.0,78,0.00,,---,0.00,VWS V14.01,2013-03-01 05:40:00,
2013-02-28 23:45:00,33.7,27.6,30.26,SSW,199,1.0,2.0,78,0.00,,---,0.00,VWS V14.01,2013-03-01 05:45:00,
2013-02-28 23:51:00,33.5,27.4,30.26,SSW,199,0.0,2.0,78,0.00,,---,0.00,VWS V14.01,2013-03-01 05:51:00,
2013-02-28 23:56:00,33.4,27.6,30.26,SSW,198,1.0,2.0,79,0.00,,---,0.00,VWS V14.01,2013-03-01 05:56:00,